sensor_id;sensor_type;location;lat;lon;timestamp;P1;durP1;ratioP1;P2;durP2;ratioP2
61085;SDS011;46967;48.876;2.136;2022-10-16T00:01:56;2.30;;;0.60;;
61085;SDS011;46967;48.876;2.136;2022-10-16T00:04:21;3.90;;;0.90;;
61085;SDS011;46967;48.876;2.136;2022-10-16T00:06:47;2.33;;;0.65;;
61085;SDS011;46967;48.876;2.136;2022-10-16T00:09:12;1.67;;;0.60;;
61085;SDS011;46967;48.876;2.136;2022-10-16T00:11:38;1.23;;;0.60;;
61085;SDS011;46967;48.876;2.136;2022-10-16T00:14:06;1.45;;;0.70;;
61085;SDS011;46967;48.876;2.136;2022-10-16T00:16:35;1.60;;;0.80;;
61085;SDS011;46967;48.876;2.136;2022-10-16T00:19:00;2.55;;;0.95;;
61085;SDS011;46967;48.876;2.136;2022-10-16T00:21:27;2.63;;;0.70;;
61085;SDS011;46967;48.876;2.136;2022-10-16T00:23:55;2.00;;;0.65;;
61085;SDS011;46967;48.876;2.136;2022-10-16T00:26:25;2.20;;;0.50;;
61085;SDS011;46967;48.876;2.136;2022-10-16T00:28:51;2.28;;;0.70;;
61085;SDS011;46967;48.876;2.136;2022-10-16T00:31:18;0.52;;;0.52;;
61085;SDS011;46967;48.876;2.136;2022-10-16T00:33:45;1.63;;;0.52;;
61085;SDS011;46967;48.876;2.136;2022-10-16T00:36:12;2.17;;;0.60;;
61085;SDS011;46967;48.876;2.136;2022-10-16T00:38:40;2.38;;;0.68;;
61085;SDS011;46967;48.876;2.136;2022-10-16T00:41:06;1.88;;;0.50;;
61085;SDS011;46967;48.876;2.136;2022-10-16T00:43:36;3.10;;;0.63;;
61085;SDS011;46967;48.876;2.136;2022-10-16T00:46:13;0.90;;;0.50;;
61085;SDS011;46967;48.876;2.136;2022-10-16T00:48:50;3.08;;;0.70;;
61085;SDS011;46967;48.876;2.136;2022-10-16T00:51:23;7.57;;;1.00;;
61085;SDS011;46967;48.876;2.136;2022-10-16T00:53:53;1.70;;;0.60;;
61085;SDS011;46967;48.876;2.136;2022-10-16T00:56:20;2.35;;;0.80;;
61085;SDS011;46967;48.876;2.136;2022-10-16T00:58:45;4.95;;;0.68;;
61085;SDS011;46967;48.876;2.136;2022-10-16T01:01:11;2.53;;;0.50;;
61085;SDS011;46967;48.876;2.136;2022-10-16T01:03:36;2.05;;;0.57;;
61085;SDS011;46967;48.876;2.136;2022-10-16T01:08:57;2.17;;;0.50;;
61085;SDS011;46967;48.876;2.136;2022-10-16T01:14:41;1.08;;;0.47;;
61085;SDS011;46967;48.876;2.136;2022-10-16T01:17:15;2.55;;;0.57;;
61085;SDS011;46967;48.876;2.136;2022-10-16T01:28:54;1.70;;;0.50;;
61085;SDS011;46967;48.876;2.136;2022-10-16T01:31:23;4.40;;;0.88;;
61085;SDS011;46967;48.876;2.136;2022-10-16T01:33:59;0.93;;;0.50;;
61085;SDS011;46967;48.876;2.136;2022-10-16T01:36:35;2.17;;;0.52;;
61085;SDS011;46967;48.876;2.136;2022-10-16T01:39:04;1.35;;;0.50;;
61085;SDS011;46967;48.876;2.136;2022-10-16T01:41:34;1.85;;;0.43;;
61085;SDS011;46967;48.876;2.136;2022-10-16T01:44:06;2.25;;;0.40;;
61085;SDS011;46967;48.876;2.136;2022-10-16T01:46:36;3.00;;;0.73;;
61085;SDS011;46967;48.876;2.136;2022-10-16T01:49:04;0.77;;;0.20;;
61085;SDS011;46967;48.876;2.136;2022-10-16T01:51:32;3.70;;;0.60;;
61085;SDS011;46967;48.876;2.136;2022-10-16T01:54:00;2.88;;;0.60;;
61085;SDS011;46967;48.876;2.136;2022-10-16T01:56:26;3.30;;;0.50;;
61085;SDS011;46967;48.876;2.136;2022-10-16T01:59:04;0.43;;;0.40;;
61085;SDS011;46967;48.876;2.136;2022-10-16T02:01:35;2.00;;;0.50;;
61085;SDS011;46967;48.876;2.136;2022-10-16T02:04:07;2.28;;;0.50;;
61085;SDS011;46967;48.876;2.136;2022-10-16T02:06:36;4.35;;;0.60;;
61085;SDS011;46967;48.876;2.136;2022-10-16T02:09:02;1.65;;;0.50;;
61085;SDS011;46967;48.876;2.136;2022-10-16T02:11:27;1.90;;;0.57;;
61085;SDS011;46967;48.876;2.136;2022-10-16T02:13:54;1.42;;;0.50;;
61085;SDS011;46967;48.876;2.136;2022-10-16T02:16:32;2.22;;;0.60;;
61085;SDS011;46967;48.876;2.136;2022-10-16T02:18:59;1.17;;;0.50;;
61085;SDS011;46967;48.876;2.136;2022-10-16T02:21:28;3.17;;;0.60;;
61085;SDS011;46967;48.876;2.136;2022-10-16T02:26:36;2.53;;;0.47;;
61085;SDS011;46967;48.876;2.136;2022-10-16T02:29:18;2.00;;;0.60;;
61085;SDS011;46967;48.876;2.136;2022-10-16T02:31:49;3.90;;;0.45;;
61085;SDS011;46967;48.876;2.136;2022-10-16T02:34:18;2.88;;;0.52;;
61085;SDS011;46967;48.876;2.136;2022-10-16T02:36:47;0.90;;;0.43;;
61085;SDS011;46967;48.876;2.136;2022-10-16T02:39:15;2.17;;;0.50;;
61085;SDS011;46967;48.876;2.136;2022-10-16T02:41:41;6.03;;;0.52;;
61085;SDS011;46967;48.876;2.136;2022-10-16T02:44:07;2.53;;;0.50;;
61085;SDS011;46967;48.876;2.136;2022-10-16T02:46:32;1.88;;;0.43;;
61085;SDS011;46967;48.876;2.136;2022-10-16T02:48:58;1.08;;;0.40;;
61085;SDS011;46967;48.876;2.136;2022-10-16T02:51:23;2.42;;;0.40;;
61085;SDS011;46967;48.876;2.136;2022-10-16T02:53:49;1.38;;;0.57;;
61085;SDS011;46967;48.876;2.136;2022-10-16T02:56:14;0.73;;;0.35;;
61085;SDS011;46967;48.876;2.136;2022-10-16T02:58:39;1.95;;;0.45;;
61085;SDS011;46967;48.876;2.136;2022-10-16T03:01:05;2.45;;;0.50;;
61085;SDS011;46967;48.876;2.136;2022-10-16T03:03:30;1.67;;;0.55;;
61085;SDS011;46967;48.876;2.136;2022-10-16T03:05:55;1.05;;;0.40;;
61085;SDS011;46967;48.876;2.136;2022-10-16T03:08:21;2.45;;;0.52;;
61085;SDS011;46967;48.876;2.136;2022-10-16T03:10:48;0.88;;;0.50;;
61085;SDS011;46967;48.876;2.136;2022-10-16T03:13:15;2.83;;;0.50;;
61085;SDS011;46967;48.876;2.136;2022-10-16T03:15:40;3.42;;;0.60;;
61085;SDS011;46967;48.876;2.136;2022-10-16T03:18:05;1.60;;;0.47;;
61085;SDS011;46967;48.876;2.136;2022-10-16T03:20:31;0.65;;;0.30;;
61085;SDS011;46967;48.876;2.136;2022-10-16T03:22:56;0.70;;;0.30;;
61085;SDS011;46967;48.876;2.136;2022-10-16T03:25:21;1.05;;;0.40;;
61085;SDS011;46967;48.876;2.136;2022-10-16T03:27:47;0.75;;;0.38;;
61085;SDS011;46967;48.876;2.136;2022-10-16T03:30:12;2.40;;;0.30;;
61085;SDS011;46967;48.876;2.136;2022-10-16T03:32:37;2.97;;;0.77;;
61085;SDS011;46967;48.876;2.136;2022-10-16T03:35:03;2.28;;;0.35;;
61085;SDS011;46967;48.876;2.136;2022-10-16T03:37:28;0.77;;;0.30;;
61085;SDS011;46967;48.876;2.136;2022-10-16T03:39:54;1.45;;;0.38;;
61085;SDS011;46967;48.876;2.136;2022-10-16T03:42:19;3.10;;;0.32;;
61085;SDS011;46967;48.876;2.136;2022-10-16T03:44:45;5.45;;;0.40;;
61085;SDS011;46967;48.876;2.136;2022-10-16T03:47:10;2.50;;;0.50;;
61085;SDS011;46967;48.876;2.136;2022-10-16T03:49:35;5.28;;;0.40;;
61085;SDS011;46967;48.876;2.136;2022-10-16T03:52:01;1.00;;;0.30;;
61085;SDS011;46967;48.876;2.136;2022-10-16T03:54:26;0.50;;;0.30;;
61085;SDS011;46967;48.876;2.136;2022-10-16T03:56:51;3.05;;;0.40;;
61085;SDS011;46967;48.876;2.136;2022-10-16T03:59:17;2.08;;;0.32;;
61085;SDS011;46967;48.876;2.136;2022-10-16T04:01:42;0.45;;;0.22;;
61085;SDS011;46967;48.876;2.136;2022-10-16T04:04:07;1.48;;;0.30;;
61085;SDS011;46967;48.876;2.136;2022-10-16T04:06:33;0.82;;;0.57;;
61085;SDS011;46967;48.876;2.136;2022-10-16T04:08:58;3.15;;;0.30;;
61085;SDS011;46967;48.876;2.136;2022-10-16T04:11:23;0.47;;;0.13;;
61085;SDS011;46967;48.876;2.136;2022-10-16T04:13:49;2.15;;;0.35;;
61085;SDS011;46967;48.876;2.136;2022-10-16T04:16:14;0.50;;;0.30;;
61085;SDS011;46967;48.876;2.136;2022-10-16T04:18:39;3.25;;;0.40;;
61085;SDS011;46967;48.876;2.136;2022-10-16T04:21:05;1.75;;;0.32;;
61085;SDS011;46967;48.876;2.136;2022-10-16T04:23:31;2.47;;;0.50;;
61085;SDS011;46967;48.876;2.136;2022-10-16T04:25:57;0.80;;;0.30;;
61085;SDS011;46967;48.876;2.136;2022-10-16T04:28:23;0.75;;;0.30;;
61085;SDS011;46967;48.876;2.136;2022-10-16T04:30:48;3.65;;;0.22;;
61085;SDS011;46967;48.876;2.136;2022-10-16T04:33:13;1.35;;;0.30;;
61085;SDS011;46967;48.876;2.136;2022-10-16T04:35:39;0.30;;;0.30;;
61085;SDS011;46967;48.876;2.136;2022-10-16T04:38:04;6.70;;;0.55;;
61085;SDS011;46967;48.876;2.136;2022-10-16T04:40:29;3.60;;;0.40;;
61085;SDS011;46967;48.876;2.136;2022-10-16T04:42:58;2.30;;;0.40;;
61085;SDS011;46967;48.876;2.136;2022-10-16T04:45:23;0.80;;;0.22;;
61085;SDS011;46967;48.876;2.136;2022-10-16T04:47:49;0.90;;;0.30;;
61085;SDS011;46967;48.876;2.136;2022-10-16T04:50:14;0.57;;;0.25;;
61085;SDS011;46967;48.876;2.136;2022-10-16T04:52:39;0.70;;;0.30;;
61085;SDS011;46967;48.876;2.136;2022-10-16T04:55:05;1.98;;;0.30;;
61085;SDS011;46967;48.876;2.136;2022-10-16T04:57:31;1.33;;;0.40;;
61085;SDS011;46967;48.876;2.136;2022-10-16T04:59:58;0.32;;;0.10;;
61085;SDS011;46967;48.876;2.136;2022-10-16T05:02:24;1.35;;;0.30;;
61085;SDS011;46967;48.876;2.136;2022-10-16T05:04:49;0.80;;;0.20;;
61085;SDS011;46967;48.876;2.136;2022-10-16T05:07:15;0.52;;;0.13;;
61085;SDS011;46967;48.876;2.136;2022-10-16T05:09:40;1.30;;;0.30;;
61085;SDS011;46967;48.876;2.136;2022-10-16T05:12:06;1.85;;;0.22;;
61085;SDS011;46967;48.876;2.136;2022-10-16T05:14:31;1.38;;;0.43;;
61085;SDS011;46967;48.876;2.136;2022-10-16T05:16:56;1.08;;;0.35;;
61085;SDS011;46967;48.876;2.136;2022-10-16T05:19:22;1.30;;;0.47;;
61085;SDS011;46967;48.876;2.136;2022-10-16T05:21:47;4.18;;;1.33;;
61085;SDS011;46967;48.876;2.136;2022-10-16T05:24:12;0.20;;;0.20;;
61085;SDS011;46967;48.876;2.136;2022-10-16T05:26:38;1.25;;;0.40;;
61085;SDS011;46967;48.876;2.136;2022-10-16T05:29:03;3.33;;;0.60;;
61085;SDS011;46967;48.876;2.136;2022-10-16T05:31:29;2.90;;;0.40;;
61085;SDS011;46967;48.876;2.136;2022-10-16T05:34:00;2.40;;;0.80;;
61085;SDS011;46967;48.876;2.136;2022-10-16T05:36:26;1.42;;;0.47;;
61085;SDS011;46967;48.876;2.136;2022-10-16T05:38:51;0.65;;;0.25;;
61085;SDS011;46967;48.876;2.136;2022-10-16T05:41:17;0.82;;;0.30;;
61085;SDS011;46967;48.876;2.136;2022-10-16T05:43:48;2.13;;;0.38;;
61085;SDS011;46967;48.876;2.136;2022-10-16T05:46:14;4.22;;;0.38;;
61085;SDS011;46967;48.876;2.136;2022-10-16T05:48:40;1.63;;;0.40;;
61085;SDS011;46967;48.876;2.136;2022-10-16T05:51:06;1.05;;;0.30;;
61085;SDS011;46967;48.876;2.136;2022-10-16T05:53:34;1.27;;;0.35;;
61085;SDS011;46967;48.876;2.136;2022-10-16T05:56:01;1.55;;;0.35;;
61085;SDS011;46967;48.876;2.136;2022-10-16T05:58:28;0.85;;;0.32;;
61085;SDS011;46967;48.876;2.136;2022-10-16T06:01:00;0.70;;;0.30;;
61085;SDS011;46967;48.876;2.136;2022-10-16T06:03:27;1.83;;;0.40;;
61085;SDS011;46967;48.876;2.136;2022-10-16T06:05:52;1.75;;;0.65;;
61085;SDS011;46967;48.876;2.136;2022-10-16T06:08:18;1.27;;;0.50;;
61085;SDS011;46967;48.876;2.136;2022-10-16T06:10:44;2.90;;;0.45;;
61085;SDS011;46967;48.876;2.136;2022-10-16T06:13:11;1.15;;;0.30;;
61085;SDS011;46967;48.876;2.136;2022-10-16T06:15:37;1.10;;;0.40;;
61085;SDS011;46967;48.876;2.136;2022-10-16T06:18:04;0.75;;;0.30;;
61085;SDS011;46967;48.876;2.136;2022-10-16T06:20:30;1.35;;;0.30;;
61085;SDS011;46967;48.876;2.136;2022-10-16T06:22:55;3.10;;;0.50;;
61085;SDS011;46967;48.876;2.136;2022-10-16T06:25:21;0.65;;;0.32;;
61085;SDS011;46967;48.876;2.136;2022-10-16T06:27:47;4.68;;;0.60;;
61085;SDS011;46967;48.876;2.136;2022-10-16T06:30:12;1.50;;;0.40;;
61085;SDS011;46967;48.876;2.136;2022-10-16T06:32:38;2.60;;;0.73;;
61085;SDS011;46967;48.876;2.136;2022-10-16T06:35:03;2.00;;;0.57;;
61085;SDS011;46967;48.876;2.136;2022-10-16T06:37:29;1.23;;;0.55;;
61085;SDS011;46967;48.876;2.136;2022-10-16T06:39:54;2.42;;;0.40;;
61085;SDS011;46967;48.876;2.136;2022-10-16T06:42:19;2.60;;;0.98;;
61085;SDS011;46967;48.876;2.136;2022-10-16T06:44:45;1.38;;;0.50;;
61085;SDS011;46967;48.876;2.136;2022-10-16T06:47:10;0.90;;;0.50;;
61085;SDS011;46967;48.876;2.136;2022-10-16T06:49:35;0.98;;;0.50;;
61085;SDS011;46967;48.876;2.136;2022-10-16T06:52:01;2.95;;;0.60;;
61085;SDS011;46967;48.876;2.136;2022-10-16T06:54:27;2.83;;;0.73;;
61085;SDS011;46967;48.876;2.136;2022-10-16T06:56:52;1.55;;;0.75;;
61085;SDS011;46967;48.876;2.136;2022-10-16T06:59:21;1.85;;;0.70;;
61085;SDS011;46967;48.876;2.136;2022-10-16T07:01:47;2.25;;;0.50;;
61085;SDS011;46967;48.876;2.136;2022-10-16T07:04:12;1.98;;;0.77;;
61085;SDS011;46967;48.876;2.136;2022-10-16T07:06:38;1.50;;;0.50;;
61085;SDS011;46967;48.876;2.136;2022-10-16T07:09:05;1.27;;;0.70;;
61085;SDS011;46967;48.876;2.136;2022-10-16T07:11:32;2.58;;;0.73;;
61085;SDS011;46967;48.876;2.136;2022-10-16T07:13:58;3.60;;;0.85;;
61085;SDS011;46967;48.876;2.136;2022-10-16T07:16:25;2.58;;;0.75;;
61085;SDS011;46967;48.876;2.136;2022-10-16T07:18:53;2.30;;;0.90;;
61085;SDS011;46967;48.876;2.136;2022-10-16T07:21:23;0.93;;;0.50;;
61085;SDS011;46967;48.876;2.136;2022-10-16T07:23:50;2.55;;;0.45;;
61085;SDS011;46967;48.876;2.136;2022-10-16T07:26:17;2.00;;;0.73;;
61085;SDS011;46967;48.876;2.136;2022-10-16T07:28:42;1.45;;;0.65;;
61085;SDS011;46967;48.876;2.136;2022-10-16T07:31:10;2.22;;;1.00;;
61085;SDS011;46967;48.876;2.136;2022-10-16T07:33:37;1.60;;;0.80;;
61085;SDS011;46967;48.876;2.136;2022-10-16T07:36:03;1.13;;;0.50;;
61085;SDS011;46967;48.876;2.136;2022-10-16T07:38:29;3.72;;;1.10;;
61085;SDS011;46967;48.876;2.136;2022-10-16T07:40:58;4.25;;;0.95;;
61085;SDS011;46967;48.876;2.136;2022-10-16T07:43:25;4.65;;;1.20;;
61085;SDS011;46967;48.876;2.136;2022-10-16T07:45:51;2.08;;;1.02;;
61085;SDS011;46967;48.876;2.136;2022-10-16T07:48:17;0.82;;;0.50;;
61085;SDS011;46967;48.876;2.136;2022-10-16T07:50:44;3.15;;;0.60;;
61085;SDS011;46967;48.876;2.136;2022-10-16T07:53:10;1.38;;;0.50;;
61085;SDS011;46967;48.876;2.136;2022-10-16T07:55:36;1.02;;;0.60;;
61085;SDS011;46967;48.876;2.136;2022-10-16T07:58:01;1.98;;;0.50;;
61085;SDS011;46967;48.876;2.136;2022-10-16T08:00:27;2.90;;;0.60;;
61085;SDS011;46967;48.876;2.136;2022-10-16T08:02:52;1.08;;;0.57;;
61085;SDS011;46967;48.876;2.136;2022-10-16T08:05:17;0.70;;;0.45;;
61085;SDS011;46967;48.876;2.136;2022-10-16T08:07:43;2.10;;;0.40;;
61085;SDS011;46967;48.876;2.136;2022-10-16T08:10:16;0.93;;;0.52;;
61085;SDS011;46967;48.876;2.136;2022-10-16T08:12:43;1.10;;;0.40;;
61085;SDS011;46967;48.876;2.136;2022-10-16T08:15:08;3.00;;;0.50;;
61085;SDS011;46967;48.876;2.136;2022-10-16T08:17:34;0.77;;;0.38;;
61085;SDS011;46967;48.876;2.136;2022-10-16T08:19:59;2.17;;;0.70;;
61085;SDS011;46967;48.876;2.136;2022-10-16T08:22:25;1.25;;;0.30;;
61085;SDS011;46967;48.876;2.136;2022-10-16T08:24:50;3.60;;;0.35;;
61085;SDS011;46967;48.876;2.136;2022-10-16T08:27:15;2.60;;;0.52;;
61085;SDS011;46967;48.876;2.136;2022-10-16T08:29:41;1.23;;;0.80;;
61085;SDS011;46967;48.876;2.136;2022-10-16T08:32:06;3.92;;;0.57;;
61085;SDS011;46967;48.876;2.136;2022-10-16T08:34:31;2.03;;;0.55;;
61085;SDS011;46967;48.876;2.136;2022-10-16T08:36:57;0.82;;;0.50;;
61085;SDS011;46967;48.876;2.136;2022-10-16T08:39:22;0.88;;;0.50;;
61085;SDS011;46967;48.876;2.136;2022-10-16T08:44:47;0.90;;;0.60;;
61085;SDS011;46967;48.876;2.136;2022-10-16T08:47:20;1.35;;;0.70;;
61085;SDS011;46967;48.876;2.136;2022-10-16T08:49:57;5.60;;;0.60;;
61085;SDS011;46967;48.876;2.136;2022-10-16T08:52:31;2.53;;;0.40;;
61085;SDS011;46967;48.876;2.136;2022-10-16T08:55:00;1.40;;;0.50;;
61085;SDS011;46967;48.876;2.136;2022-10-16T08:57:26;0.63;;;0.40;;
61085;SDS011;46967;48.876;2.136;2022-10-16T08:59:52;2.90;;;0.50;;
61085;SDS011;46967;48.876;2.136;2022-10-16T09:04:57;3.55;;;0.68;;
61085;SDS011;46967;48.876;2.136;2022-10-16T09:07:36;2.15;;;0.60;;
61085;SDS011;46967;48.876;2.136;2022-10-16T09:15:58;1.80;;;0.52;;
61085;SDS011;46967;48.876;2.136;2022-10-16T09:18:37;0.85;;;0.50;;
61085;SDS011;46967;48.876;2.136;2022-10-16T09:21:18;2.42;;;0.52;;
61085;SDS011;46967;48.876;2.136;2022-10-16T09:23:48;1.10;;;0.43;;
61085;SDS011;46967;48.876;2.136;2022-10-16T09:26:14;2.00;;;0.40;;
61085;SDS011;46967;48.876;2.136;2022-10-16T09:28:41;1.58;;;0.60;;
61085;SDS011;46967;48.876;2.136;2022-10-16T09:31:18;3.72;;;0.47;;
61085;SDS011;46967;48.876;2.136;2022-10-16T09:33:48;3.03;;;0.60;;
61085;SDS011;46967;48.876;2.136;2022-10-16T09:36:18;1.67;;;0.47;;
61085;SDS011;46967;48.876;2.136;2022-10-16T09:38:45;3.63;;;0.45;;
61085;SDS011;46967;48.876;2.136;2022-10-16T09:41:15;0.50;;;0.40;;
61085;SDS011;46967;48.876;2.136;2022-10-16T09:43:52;2.08;;;0.55;;
61085;SDS011;46967;48.876;2.136;2022-10-16T09:46:35;0.82;;;0.45;;
61085;SDS011;46967;48.876;2.136;2022-10-16T09:49:19;2.15;;;0.60;;
61085;SDS011;46967;48.876;2.136;2022-10-16T09:51:50;1.65;;;0.50;;
61085;SDS011;46967;48.876;2.136;2022-10-16T09:54:27;3.45;;;0.80;;
61085;SDS011;46967;48.876;2.136;2022-10-16T09:56:52;1.55;;;0.50;;
61085;SDS011;46967;48.876;2.136;2022-10-16T09:59:19;3.42;;;0.55;;
61085;SDS011;46967;48.876;2.136;2022-10-16T10:04:16;3.55;;;0.60;;
61085;SDS011;46967;48.876;2.136;2022-10-16T10:09:23;0.88;;;0.40;;
61085;SDS011;46967;48.876;2.136;2022-10-16T10:12:00;1.00;;;0.47;;
61085;SDS011;46967;48.876;2.136;2022-10-16T10:51:39;1.08;;;0.68;;
61085;SDS011;46967;48.876;2.136;2022-10-16T10:54:20;3.10;;;1.00;;
61085;SDS011;46967;48.876;2.136;2022-10-16T10:57:07;2.28;;;0.77;;
61085;SDS011;46967;48.876;2.136;2022-10-16T11:08:11;1.80;;;0.90;;
61085;SDS011;46967;48.876;2.136;2022-10-16T11:10:44;1.90;;;1.00;;
61085;SDS011;46967;48.876;2.136;2022-10-16T11:15:52;1.70;;;0.63;;
61085;SDS011;46967;48.876;2.136;2022-10-16T11:21:07;1.38;;;0.88;;
61085;SDS011;46967;48.876;2.136;2022-10-16T11:26:16;2.13;;;0.60;;
61085;SDS011;46967;48.876;2.136;2022-10-16T11:28:47;1.02;;;0.40;;
61085;SDS011;46967;48.876;2.136;2022-10-16T11:33:48;2.95;;;0.70;;
61085;SDS011;46967;48.876;2.136;2022-10-16T11:39:25;0.65;;;0.60;;
61085;SDS011;46967;48.876;2.136;2022-10-16T11:41:55;1.05;;;0.50;;
61085;SDS011;46967;48.876;2.136;2022-10-16T11:49:36;0.30;;;0.30;;
61085;SDS011;46967;48.876;2.136;2022-10-16T11:52:20;0.30;;;0.30;;
61085;SDS011;46967;48.876;2.136;2022-10-16T11:54:55;0.85;;;0.38;;
61085;SDS011;46967;48.876;2.136;2022-10-16T11:57:27;0.32;;;0.30;;
61085;SDS011;46967;48.876;2.136;2022-10-16T12:02:54;1.77;;;0.25;;
61085;SDS011;46967;48.876;2.136;2022-10-16T12:08:12;0.13;;;0.13;;
61085;SDS011;46967;48.876;2.136;2022-10-16T12:10:40;0.82;;;0.55;;
61085;SDS011;46967;48.876;2.136;2022-10-16T12:13:27;1.40;;;0.30;;
61085;SDS011;46967;48.876;2.136;2022-10-16T12:16:05;0.30;;;0.25;;
61085;SDS011;46967;48.876;2.136;2022-10-16T12:19:02;1.38;;;0.50;;
61085;SDS011;46967;48.876;2.136;2022-10-16T12:21:38;0.30;;;0.30;;
61085;SDS011;46967;48.876;2.136;2022-10-16T12:24:05;1.17;;;0.20;;
61085;SDS011;46967;48.876;2.136;2022-10-16T12:26:31;0.30;;;0.30;;
61085;SDS011;46967;48.876;2.136;2022-10-16T12:29:11;0.60;;;0.38;;
61085;SDS011;46967;48.876;2.136;2022-10-16T12:31:38;3.22;;;0.60;;
61085;SDS011;46967;48.876;2.136;2022-10-16T12:39:49;1.08;;;0.40;;
61085;SDS011;46967;48.876;2.136;2022-10-16T12:42:48;10.10;;;0.50;;
61085;SDS011;46967;48.876;2.136;2022-10-16T12:50:26;0.30;;;0.30;;
61085;SDS011;46967;48.876;2.136;2022-10-16T12:52:54;3.13;;;0.50;;
61085;SDS011;46967;48.876;2.136;2022-10-16T12:55:20;0.60;;;0.47;;
61085;SDS011;46967;48.876;2.136;2022-10-16T13:00:31;0.52;;;0.50;;
61085;SDS011;46967;48.876;2.136;2022-10-16T13:03:08;0.70;;;0.55;;
61085;SDS011;46967;48.876;2.136;2022-10-16T13:30:17;2.13;;;0.50;;
61085;SDS011;46967;48.876;2.136;2022-10-16T13:32:49;1.20;;;0.57;;
61085;SDS011;46967;48.876;2.136;2022-10-16T13:35:26;1.98;;;0.70;;
61085;SDS011;46967;48.876;2.136;2022-10-16T13:40:59;0.68;;;0.40;;
61085;SDS011;46967;48.876;2.136;2022-10-16T13:43:39;0.93;;;0.60;;
61085;SDS011;46967;48.876;2.136;2022-10-16T13:46:18;0.82;;;0.70;;
61085;SDS011;46967;48.876;2.136;2022-10-16T13:48:56;1.60;;;0.90;;
61085;SDS011;46967;48.876;2.136;2022-10-16T13:51:29;0.80;;;0.80;;
61085;SDS011;46967;48.876;2.136;2022-10-16T13:53:56;1.25;;;0.93;;
61085;SDS011;46967;48.876;2.136;2022-10-16T13:56:22;1.10;;;1.00;;
61085;SDS011;46967;48.876;2.136;2022-10-16T13:58:58;2.03;;;0.93;;
61085;SDS011;46967;48.876;2.136;2022-10-16T14:01:33;1.77;;;0.85;;
61085;SDS011;46967;48.876;2.136;2022-10-16T14:04:05;2.88;;;1.00;;
61085;SDS011;46967;48.876;2.136;2022-10-16T14:06:33;1.50;;;1.00;;
61085;SDS011;46967;48.876;2.136;2022-10-16T14:09:08;1.15;;;0.98;;
61085;SDS011;46967;48.876;2.136;2022-10-16T14:11:49;2.60;;;1.00;;
61085;SDS011;46967;48.876;2.136;2022-10-16T14:14:17;4.63;;;0.98;;
61085;SDS011;46967;48.876;2.136;2022-10-16T14:16:43;2.70;;;1.05;;
61085;SDS011;46967;48.876;2.136;2022-10-16T14:19:45;1.20;;;1.02;;
61085;SDS011;46967;48.876;2.136;2022-10-16T14:22:02;2.15;;;1.05;;
61085;SDS011;46967;48.876;2.136;2022-10-16T14:24:47;1.88;;;1.10;;
61085;SDS011;46967;48.876;2.136;2022-10-16T14:27:28;2.95;;;0.95;;
61085;SDS011;46967;48.876;2.136;2022-10-16T14:32:40;2.08;;;1.33;;
61085;SDS011;46967;48.876;2.136;2022-10-16T14:35:21;1.83;;;1.23;;
61085;SDS011;46967;48.876;2.136;2022-10-16T14:37:58;3.92;;;1.23;;
61085;SDS011;46967;48.876;2.136;2022-10-16T14:40:27;4.88;;;1.20;;
61085;SDS011;46967;48.876;2.136;2022-10-16T14:42:57;2.67;;;1.48;;
61085;SDS011;46967;48.876;2.136;2022-10-16T14:45:26;2.90;;;1.10;;
61085;SDS011;46967;48.876;2.136;2022-10-16T14:47:55;2.58;;;1.00;;
61085;SDS011;46967;48.876;2.136;2022-10-16T14:50:22;2.10;;;1.23;;
61085;SDS011;46967;48.876;2.136;2022-10-16T14:52:48;2.90;;;1.20;;
61085;SDS011;46967;48.876;2.136;2022-10-16T14:55:13;1.33;;;1.08;;
61085;SDS011;46967;48.876;2.136;2022-10-16T14:57:39;5.05;;;1.00;;
61085;SDS011;46967;48.876;2.136;2022-10-16T15:00:21;2.63;;;1.17;;
61085;SDS011;46967;48.876;2.136;2022-10-16T15:02:48;1.40;;;1.10;;
61085;SDS011;46967;48.876;2.136;2022-10-16T15:05:19;3.92;;;1.10;;
61085;SDS011;46967;48.876;2.136;2022-10-16T15:07:47;1.65;;;1.00;;
61085;SDS011;46967;48.876;2.136;2022-10-16T15:10:14;4.00;;;1.10;;
61085;SDS011;46967;48.876;2.136;2022-10-16T15:12:40;8.27;;;1.63;;
61085;SDS011;46967;48.876;2.136;2022-10-16T15:17:48;1.52;;;1.00;;
61085;SDS011;46967;48.876;2.136;2022-10-16T15:20:17;4.97;;;1.40;;
61085;SDS011;46967;48.876;2.136;2022-10-16T15:22:42;2.85;;;1.30;;
61085;SDS011;46967;48.876;2.136;2022-10-16T15:25:17;2.45;;;1.13;;
61085;SDS011;46967;48.876;2.136;2022-10-16T15:27:57;1.70;;;1.30;;
61085;SDS011;46967;48.876;2.136;2022-10-16T15:30:22;2.20;;;1.10;;
61085;SDS011;46967;48.876;2.136;2022-10-16T15:32:47;1.90;;;1.15;;
61085;SDS011;46967;48.876;2.136;2022-10-16T15:35:13;4.88;;;1.20;;
61085;SDS011;46967;48.876;2.136;2022-10-16T15:37:39;1.33;;;1.10;;
61085;SDS011;46967;48.876;2.136;2022-10-16T15:40:04;4.40;;;1.40;;
61085;SDS011;46967;48.876;2.136;2022-10-16T15:42:30;4.72;;;1.52;;
61085;SDS011;46967;48.876;2.136;2022-10-16T15:44:55;2.05;;;1.25;;
61085;SDS011;46967;48.876;2.136;2022-10-16T15:47:21;4.40;;;1.77;;
61085;SDS011;46967;48.876;2.136;2022-10-16T15:49:46;3.15;;;1.52;;
61085;SDS011;46967;48.876;2.136;2022-10-16T15:52:11;2.00;;;1.60;;
61085;SDS011;46967;48.876;2.136;2022-10-16T15:54:37;1.60;;;1.50;;
61085;SDS011;46967;48.876;2.136;2022-10-16T15:57:02;2.83;;;1.58;;
61085;SDS011;46967;48.876;2.136;2022-10-16T15:59:28;4.45;;;1.40;;
61085;SDS011;46967;48.876;2.136;2022-10-16T16:01:53;2.65;;;1.60;;
61085;SDS011;46967;48.876;2.136;2022-10-16T16:04:18;4.70;;;1.75;;
61085;SDS011;46967;48.876;2.136;2022-10-16T16:06:44;4.28;;;1.98;;
61085;SDS011;46967;48.876;2.136;2022-10-16T16:09:10;4.53;;;2.05;;
61085;SDS011;46967;48.876;2.136;2022-10-16T16:11:36;2.58;;;2.10;;
61085;SDS011;46967;48.876;2.136;2022-10-16T16:14:04;3.90;;;1.90;;
61085;SDS011;46967;48.876;2.136;2022-10-16T16:16:30;2.53;;;1.80;;
61085;SDS011;46967;48.876;2.136;2022-10-16T16:18:56;3.42;;;2.00;;
61085;SDS011;46967;48.876;2.136;2022-10-16T16:21:22;3.17;;;1.88;;
61085;SDS011;46967;48.876;2.136;2022-10-16T16:23:47;2.90;;;1.98;;
61085;SDS011;46967;48.876;2.136;2022-10-16T16:26:13;2.53;;;1.75;;
61085;SDS011;46967;48.876;2.136;2022-10-16T16:28:46;4.28;;;1.70;;
61085;SDS011;46967;48.876;2.136;2022-10-16T16:31:12;2.83;;;2.00;;
61085;SDS011;46967;48.876;2.136;2022-10-16T16:33:37;3.50;;;2.13;;
61085;SDS011;46967;48.876;2.136;2022-10-16T16:36:04;4.88;;;2.50;;
61085;SDS011;46967;48.876;2.136;2022-10-16T16:38:31;3.05;;;2.00;;
61085;SDS011;46967;48.876;2.136;2022-10-16T16:40:56;2.50;;;2.20;;
61085;SDS011;46967;48.876;2.136;2022-10-16T16:43:23;7.30;;;2.20;;
61085;SDS011;46967;48.876;2.136;2022-10-16T16:48:18;2.25;;;1.85;;
61085;SDS011;46967;48.876;2.136;2022-10-16T16:50:43;2.70;;;1.90;;
61085;SDS011;46967;48.876;2.136;2022-10-16T16:53:09;3.75;;;1.65;;
61085;SDS011;46967;48.876;2.136;2022-10-16T16:55:34;4.38;;;1.83;;
61085;SDS011;46967;48.876;2.136;2022-10-16T16:57:59;3.83;;;1.95;;
61085;SDS011;46967;48.876;2.136;2022-10-16T17:00:25;4.57;;;2.22;;
61085;SDS011;46967;48.876;2.136;2022-10-16T17:02:51;5.82;;;2.42;;
61085;SDS011;46967;48.876;2.136;2022-10-16T17:05:16;4.68;;;2.33;;
61085;SDS011;46967;48.876;2.136;2022-10-16T17:07:42;4.57;;;2.08;;
61085;SDS011;46967;48.876;2.136;2022-10-16T17:10:08;5.63;;;2.00;;
61085;SDS011;46967;48.876;2.136;2022-10-16T17:12:34;5.32;;;2.58;;
61085;SDS011;46967;48.876;2.136;2022-10-16T17:14:59;5.07;;;2.95;;
61085;SDS011;46967;48.876;2.136;2022-10-16T17:17:25;5.60;;;3.25;;
61085;SDS011;46967;48.876;2.136;2022-10-16T17:19:51;7.13;;;4.60;;
61085;SDS011;46967;48.876;2.136;2022-10-16T17:22:17;10.90;;;5.60;;
61085;SDS011;46967;48.876;2.136;2022-10-16T17:24:44;10.15;;;6.10;;
61085;SDS011;46967;48.876;2.136;2022-10-16T17:27:14;8.57;;;5.82;;
61085;SDS011;46967;48.876;2.136;2022-10-16T17:29:40;10.75;;;6.15;;